sensor_id;sensor_type;location;lat;lon;timestamp;P1;durP1;ratioP1;P2;durP2;ratioP2
78891;SDS011;68368;51.728;5.248;2023-10-13T00:00:36;7.50;;;4.80;;
78891;SDS011;68368;51.728;5.248;2023-10-13T00:02:41;8.90;;;5.20;;
78891;SDS011;68368;51.728;5.248;2023-10-13T00:04:46;7.30;;;4.50;;
78891;SDS011;68368;51.728;5.248;2023-10-13T00:06:52;6.60;;;4.30;;
78891;SDS011;68368;51.728;5.248;2023-10-13T00:08:58;10.40;;;5.20;;
78891;SDS011;68368;51.728;5.248;2023-10-13T00:11:02;9.50;;;4.90;;
78891;SDS011;68368;51.728;5.248;2023-10-13T00:13:07;7.00;;;4.80;;
78891;SDS011;68368;51.728;5.248;2023-10-13T00:15:15;7.30;;;4.60;;
78891;SDS011;68368;51.728;5.248;2023-10-13T00:17:21;9.80;;;4.90;;
78891;SDS011;68368;51.728;5.248;2023-10-13T00:19:26;7.30;;;4.70;;
78891;SDS011;68368;51.728;5.248;2023-10-13T00:21:35;10.20;;;4.90;;
78891;SDS011;68368;51.728;5.248;2023-10-13T00:23:40;9.40;;;4.60;;
78891;SDS011;68368;51.728;5.248;2023-10-13T00:25:47;7.80;;;4.40;;
78891;SDS011;68368;51.728;5.248;2023-10-13T00:27:52;10.00;;;4.90;;
78891;SDS011;68368;51.728;5.248;2023-10-13T00:29:59;8.50;;;4.70;;
78891;SDS011;68368;51.728;5.248;2023-10-13T00:32:05;7.10;;;4.50;;
78891;SDS011;68368;51.728;5.248;2023-10-13T00:34:10;9.60;;;4.60;;
78891;SDS011;68368;51.728;5.248;2023-10-13T00:36:16;7.70;;;5.00;;
78891;SDS011;68368;51.728;5.248;2023-10-13T00:38:21;11.60;;;5.20;;
78891;SDS011;68368;51.728;5.248;2023-10-13T00:40:26;7.20;;;4.30;;
78891;SDS011;68368;51.728;5.248;2023-10-13T00:42:34;10.40;;;5.10;;
78891;SDS011;68368;51.728;5.248;2023-10-13T00:44:39;6.90;;;4.50;;
78891;SDS011;68368;51.728;5.248;2023-10-13T00:46:44;9.00;;;4.50;;
78891;SDS011;68368;51.728;5.248;2023-10-13T00:48:50;9.20;;;4.80;;
78891;SDS011;68368;51.728;5.248;2023-10-13T00:51:00;8.20;;;4.60;;
78891;SDS011;68368;51.728;5.248;2023-10-13T00:53:06;12.10;;;4.90;;
78891;SDS011;68368;51.728;5.248;2023-10-13T00:55:14;9.80;;;4.80;;
78891;SDS011;68368;51.728;5.248;2023-10-13T00:57:21;7.70;;;4.30;;
78891;SDS011;68368;51.728;5.248;2023-10-13T00:59:26;9.40;;;4.70;;
78891;SDS011;68368;51.728;5.248;2023-10-13T01:01:31;8.00;;;4.00;;
78891;SDS011;68368;51.728;5.248;2023-10-13T01:03:36;8.40;;;4.00;;
78891;SDS011;68368;51.728;5.248;2023-10-13T01:05:41;7.20;;;3.80;;
78891;SDS011;68368;51.728;5.248;2023-10-13T01:07:46;12.70;;;4.60;;
78891;SDS011;68368;51.728;5.248;2023-10-13T01:09:51;7.90;;;4.40;;
78891;SDS011;68368;51.728;5.248;2023-10-13T01:11:56;8.60;;;4.10;;
78891;SDS011;68368;51.728;5.248;2023-10-13T01:14:01;9.10;;;4.00;;
78891;SDS011;68368;51.728;5.248;2023-10-13T01:16:06;12.60;;;4.00;;
78891;SDS011;68368;51.728;5.248;2023-10-13T01:18:12;7.10;;;3.60;;
78891;SDS011;68368;51.728;5.248;2023-10-13T01:20:17;8.60;;;4.20;;
78891;SDS011;68368;51.728;5.248;2023-10-13T01:22:22;7.20;;;4.00;;
78891;SDS011;68368;51.728;5.248;2023-10-13T01:24:27;9.20;;;4.10;;
78891;SDS011;68368;51.728;5.248;2023-10-13T01:26:33;7.90;;;4.10;;
78891;SDS011;68368;51.728;5.248;2023-10-13T01:28:42;8.00;;;3.90;;
78891;SDS011;68368;51.728;5.248;2023-10-13T01:30:47;6.50;;;3.90;;
78891;SDS011;68368;51.728;5.248;2023-10-13T01:32:53;6.90;;;3.60;;
78891;SDS011;68368;51.728;5.248;2023-10-13T01:34:58;9.00;;;4.10;;
78891;SDS011;68368;51.728;5.248;2023-10-13T01:37:03;8.90;;;3.50;;
78891;SDS011;68368;51.728;5.248;2023-10-13T01:39:08;10.50;;;3.70;;
78891;SDS011;68368;51.728;5.248;2023-10-13T01:41:16;8.20;;;4.00;;
78891;SDS011;68368;51.728;5.248;2023-10-13T01:43:23;8.00;;;3.40;;
78891;SDS011;68368;51.728;5.248;2023-10-13T01:45:29;7.00;;;3.30;;
78891;SDS011;68368;51.728;5.248;2023-10-13T01:47:36;5.60;;;3.20;;
78891;SDS011;68368;51.728;5.248;2023-10-13T01:49:43;6.50;;;3.90;;
78891;SDS011;68368;51.728;5.248;2023-10-13T01:51:50;5.10;;;3.30;;
78891;SDS011;68368;51.728;5.248;2023-10-13T01:53:55;6.10;;;3.50;;
78891;SDS011;68368;51.728;5.248;2023-10-13T01:56:01;7.20;;;4.20;;
78891;SDS011;68368;51.728;5.248;2023-10-13T01:58:06;9.30;;;3.60;;
78891;SDS011;68368;51.728;5.248;2023-10-13T02:00:13;8.30;;;4.30;;
78891;SDS011;68368;51.728;5.248;2023-10-13T02:02:18;9.50;;;3.40;;
78891;SDS011;68368;51.728;5.248;2023-10-13T02:04:23;7.20;;;3.90;;
78891;SDS011;68368;51.728;5.248;2023-10-13T02:06:28;6.20;;;3.30;;
78891;SDS011;68368;51.728;5.248;2023-10-13T02:08:35;7.60;;;3.40;;
78891;SDS011;68368;51.728;5.248;2023-10-13T02:10:42;8.20;;;3.70;;
78891;SDS011;68368;51.728;5.248;2023-10-13T02:12:46;7.10;;;3.90;;
78891;SDS011;68368;51.728;5.248;2023-10-13T02:14:51;8.20;;;4.00;;
78891;SDS011;68368;51.728;5.248;2023-10-13T02:16:56;7.40;;;3.50;;
78891;SDS011;68368;51.728;5.248;2023-10-13T02:19:02;9.20;;;3.60;;
78891;SDS011;68368;51.728;5.248;2023-10-13T02:21:07;4.90;;;3.40;;
78891;SDS011;68368;51.728;5.248;2023-10-13T02:23:13;6.50;;;3.40;;
78891;SDS011;68368;51.728;5.248;2023-10-13T02:25:18;6.50;;;3.50;;
78891;SDS011;68368;51.728;5.248;2023-10-13T02:27:24;7.00;;;3.20;;
78891;SDS011;68368;51.728;5.248;2023-10-13T02:29:29;9.70;;;3.50;;
78891;SDS011;68368;51.728;5.248;2023-10-13T02:31:36;8.40;;;3.00;;
78891;SDS011;68368;51.728;5.248;2023-10-13T02:33:41;6.70;;;3.60;;
78891;SDS011;68368;51.728;5.248;2023-10-13T02:35:46;8.30;;;3.50;;
78891;SDS011;68368;51.728;5.248;2023-10-13T02:37:53;9.10;;;3.40;;
78891;SDS011;68368;51.728;5.248;2023-10-13T02:42:01;6.50;;;3.00;;
78891;SDS011;68368;51.728;5.248;2023-10-13T02:44:07;7.00;;;3.50;;
78891;SDS011;68368;51.728;5.248;2023-10-13T02:46:12;13.40;;;3.70;;
78891;SDS011;68368;51.728;5.248;2023-10-13T02:48:17;6.70;;;3.40;;
78891;SDS011;68368;51.728;5.248;2023-10-13T02:50:22;8.00;;;3.70;;
78891;SDS011;68368;51.728;5.248;2023-10-13T02:52:27;4.80;;;3.10;;
78891;SDS011;68368;51.728;5.248;2023-10-13T02:54:32;5.50;;;3.40;;
78891;SDS011;68368;51.728;5.248;2023-10-13T02:56:40;9.80;;;3.60;;
78891;SDS011;68368;51.728;5.248;2023-10-13T02:58:46;5.20;;;3.00;;
78891;SDS011;68368;51.728;5.248;2023-10-13T03:00:52;7.20;;;3.50;;
78891;SDS011;68368;51.728;5.248;2023-10-13T03:02:57;6.20;;;3.40;;
78891;SDS011;68368;51.728;5.248;2023-10-13T03:05:02;8.70;;;3.90;;
78891;SDS011;68368;51.728;5.248;2023-10-13T03:07:08;8.50;;;3.70;;
78891;SDS011;68368;51.728;5.248;2023-10-13T03:09:12;6.70;;;3.80;;
78891;SDS011;68368;51.728;5.248;2023-10-13T03:11:17;7.40;;;3.20;;
78891;SDS011;68368;51.728;5.248;2023-10-13T03:13:22;6.70;;;3.20;;
78891;SDS011;68368;51.728;5.248;2023-10-13T03:15:27;7.10;;;3.30;;
78891;SDS011;68368;51.728;5.248;2023-10-13T03:17:36;7.50;;;3.30;;
78891;SDS011;68368;51.728;5.248;2023-10-13T03:19:43;7.20;;;3.20;;
78891;SDS011;68368;51.728;5.248;2023-10-13T03:21:49;8.10;;;3.10;;
78891;SDS011;68368;51.728;5.248;2023-10-13T03:23:53;8.50;;;3.80;;
78891;SDS011;68368;51.728;5.248;2023-10-13T03:26:00;6.20;;;3.90;;
78891;SDS011;68368;51.728;5.248;2023-10-13T03:28:07;11.80;;;4.30;;
78891;SDS011;68368;51.728;5.248;2023-10-13T03:30:13;6.80;;;3.30;;
78891;SDS011;68368;51.728;5.248;2023-10-13T03:32:18;5.60;;;3.80;;
78891;SDS011;68368;51.728;5.248;2023-10-13T03:34:25;7.80;;;4.00;;
78891;SDS011;68368;51.728;5.248;2023-10-13T03:36:30;8.40;;;4.00;;
78891;SDS011;68368;51.728;5.248;2023-10-13T03:38:35;8.90;;;4.30;;
78891;SDS011;68368;51.728;5.248;2023-10-13T03:40:40;8.00;;;4.60;;
78891;SDS011;68368;51.728;5.248;2023-10-13T03:42:45;8.80;;;4.10;;
78891;SDS011;68368;51.728;5.248;2023-10-13T03:44:50;9.00;;;4.20;;
78891;SDS011;68368;51.728;5.248;2023-10-13T03:46:55;8.60;;;4.60;;
78891;SDS011;68368;51.728;5.248;2023-10-13T03:49:02;9.60;;;4.20;;
78891;SDS011;68368;51.728;5.248;2023-10-13T03:51:07;8.40;;;4.00;;
78891;SDS011;68368;51.728;5.248;2023-10-13T03:53:12;8.10;;;4.40;;
78891;SDS011;68368;51.728;5.248;2023-10-13T03:55:20;9.70;;;4.80;;
78891;SDS011;68368;51.728;5.248;2023-10-13T03:57:25;9.80;;;5.10;;
78891;SDS011;68368;51.728;5.248;2023-10-13T03:59:30;11.40;;;5.60;;
78891;SDS011;68368;51.728;5.248;2023-10-13T04:01:37;10.20;;;5.40;;
78891;SDS011;68368;51.728;5.248;2023-10-13T04:05:46;10.20;;;6.20;;
78891;SDS011;68368;51.728;5.248;2023-10-13T04:07:51;9.90;;;6.30;;
78891;SDS011;68368;51.728;5.248;2023-10-13T04:09:56;10.30;;;6.00;;
78891;SDS011;68368;51.728;5.248;2023-10-13T04:12:02;12.80;;;6.90;;
78891;SDS011;68368;51.728;5.248;2023-10-13T04:14:09;10.60;;;6.30;;
78891;SDS011;68368;51.728;5.248;2023-10-13T04:16:14;10.80;;;7.10;;
78891;SDS011;68368;51.728;5.248;2023-10-13T04:18:19;11.50;;;7.30;;
78891;SDS011;68368;51.728;5.248;2023-10-13T04:20:24;12.00;;;7.90;;
78891;SDS011;68368;51.728;5.248;2023-10-13T04:22:29;11.40;;;7.90;;
78891;SDS011;68368;51.728;5.248;2023-10-13T04:24:34;11.60;;;7.80;;
78891;SDS011;68368;51.728;5.248;2023-10-13T04:26:39;11.90;;;7.70;;
78891;SDS011;68368;51.728;5.248;2023-10-13T04:28:44;12.40;;;8.30;;
78891;SDS011;68368;51.728;5.248;2023-10-13T04:30:49;12.30;;;8.70;;
78891;SDS011;68368;51.728;5.248;2023-10-13T04:32:55;17.90;;;10.70;;
78891;SDS011;68368;51.728;5.248;2023-10-13T04:35:01;14.70;;;9.80;;
78891;SDS011;68368;51.728;5.248;2023-10-13T04:37:06;14.10;;;8.90;;
78891;SDS011;68368;51.728;5.248;2023-10-13T04:39:11;14.60;;;8.60;;
78891;SDS011;68368;51.728;5.248;2023-10-13T04:41:16;14.30;;;8.60;;
78891;SDS011;68368;51.728;5.248;2023-10-13T04:43:22;12.60;;;8.20;;
78891;SDS011;68368;51.728;5.248;2023-10-13T04:45:27;12.40;;;8.70;;
78891;SDS011;68368;51.728;5.248;2023-10-13T04:47:32;10.80;;;7.20;;
78891;SDS011;68368;51.728;5.248;2023-10-13T04:49:41;14.40;;;9.30;;
78891;SDS011;68368;51.728;5.248;2023-10-13T04:51:47;12.90;;;8.40;;
78891;SDS011;68368;51.728;5.248;2023-10-13T04:53:51;11.10;;;7.10;;
78891;SDS011;68368;51.728;5.248;2023-10-13T04:55:57;9.40;;;7.10;;
78891;SDS011;68368;51.728;5.248;2023-10-13T04:58:02;13.70;;;6.50;;
78891;SDS011;68368;51.728;5.248;2023-10-13T05:00:09;10.50;;;7.40;;
78891;SDS011;68368;51.728;5.248;2023-10-13T05:02:15;10.50;;;6.20;;
78891;SDS011;68368;51.728;5.248;2023-10-13T05:04:20;10.50;;;5.70;;
78891;SDS011;68368;51.728;5.248;2023-10-13T05:06:25;11.30;;;6.00;;
78891;SDS011;68368;51.728;5.248;2023-10-13T05:08:30;8.90;;;5.50;;
78891;SDS011;68368;51.728;5.248;2023-10-13T05:10:35;7.30;;;4.80;;
78891;SDS011;68368;51.728;5.248;2023-10-13T05:12:43;7.60;;;4.80;;
78891;SDS011;68368;51.728;5.248;2023-10-13T05:14:48;11.20;;;6.80;;
78891;SDS011;68368;51.728;5.248;2023-10-13T05:16:55;9.20;;;5.00;;
78891;SDS011;68368;51.728;5.248;2023-10-13T05:19:00;7.70;;;5.10;;
78891;SDS011;68368;51.728;5.248;2023-10-13T05:21:05;7.90;;;4.80;;
78891;SDS011;68368;51.728;5.248;2023-10-13T05:23:10;10.00;;;4.90;;
78891;SDS011;68368;51.728;5.248;2023-10-13T05:25:15;7.60;;;4.80;;
78891;SDS011;68368;51.728;5.248;2023-10-13T05:27:20;6.70;;;4.20;;
78891;SDS011;68368;51.728;5.248;2023-10-13T05:29:27;6.20;;;4.60;;
78891;SDS011;68368;51.728;5.248;2023-10-13T05:31:32;6.70;;;4.40;;
78891;SDS011;68368;51.728;5.248;2023-10-13T05:33:36;6.20;;;4.40;;
78891;SDS011;68368;51.728;5.248;2023-10-13T05:35:41;6.10;;;4.30;;
78891;SDS011;68368;51.728;5.248;2023-10-13T05:37:46;7.90;;;3.90;;
78891;SDS011;68368;51.728;5.248;2023-10-13T05:39:51;6.20;;;4.20;;
78891;SDS011;68368;51.728;5.248;2023-10-13T05:41:56;6.30;;;4.30;;
78891;SDS011;68368;51.728;5.248;2023-10-13T05:44:01;6.70;;;4.50;;
78891;SDS011;68368;51.728;5.248;2023-10-13T05:46:06;5.70;;;4.00;;
78891;SDS011;68368;51.728;5.248;2023-10-13T05:48:14;6.40;;;3.90;;
78891;SDS011;68368;51.728;5.248;2023-10-13T05:50:19;5.80;;;4.20;;
78891;SDS011;68368;51.728;5.248;2023-10-13T05:52:24;7.20;;;4.10;;
78891;SDS011;68368;51.728;5.248;2023-10-13T05:54:28;7.80;;;4.40;;
78891;SDS011;68368;51.728;5.248;2023-10-13T05:56:33;6.40;;;3.80;;
78891;SDS011;68368;51.728;5.248;2023-10-13T05:58:38;5.70;;;4.20;;
78891;SDS011;68368;51.728;5.248;2023-10-13T06:00:43;6.10;;;4.20;;
78891;SDS011;68368;51.728;5.248;2023-10-13T06:02:48;5.80;;;4.30;;
78891;SDS011;68368;51.728;5.248;2023-10-13T06:04:53;6.10;;;4.10;;
78891;SDS011;68368;51.728;5.248;2023-10-13T06:06:58;4.70;;;3.80;;
78891;SDS011;68368;51.728;5.248;2023-10-13T06:09:03;6.80;;;4.20;;
78891;SDS011;68368;51.728;5.248;2023-10-13T06:11:08;7.40;;;4.00;;
78891;SDS011;68368;51.728;5.248;2023-10-13T06:13:13;6.40;;;3.90;;
78891;SDS011;68368;51.728;5.248;2023-10-13T06:15:18;6.20;;;4.00;;
78891;SDS011;68368;51.728;5.248;2023-10-13T06:17:23;7.00;;;4.40;;
78891;SDS011;68368;51.728;5.248;2023-10-13T06:19:28;5.80;;;4.10;;
78891;SDS011;68368;51.728;5.248;2023-10-13T06:21:32;8.30;;;4.20;;
78891;SDS011;68368;51.728;5.248;2023-10-13T06:23:37;6.20;;;3.50;;
78891;SDS011;68368;51.728;5.248;2023-10-13T06:25:42;7.30;;;4.20;;
78891;SDS011;68368;51.728;5.248;2023-10-13T06:27:52;6.00;;;3.60;;
78891;SDS011;68368;51.728;5.248;2023-10-13T06:29:58;7.10;;;3.90;;
78891;SDS011;68368;51.728;5.248;2023-10-13T06:32:03;5.70;;;3.80;;
78891;SDS011;68368;51.728;5.248;2023-10-13T06:34:11;7.80;;;4.60;;
78891;SDS011;68368;51.728;5.248;2023-10-13T06:36:16;6.70;;;4.20;;
78891;SDS011;68368;51.728;5.248;2023-10-13T06:38:21;8.00;;;4.30;;
78891;SDS011;68368;51.728;5.248;2023-10-13T06:40:26;7.20;;;4.30;;
78891;SDS011;68368;51.728;5.248;2023-10-13T06:42:31;7.90;;;4.20;;
78891;SDS011;68368;51.728;5.248;2023-10-13T06:44:37;8.50;;;3.80;;
78891;SDS011;68368;51.728;5.248;2023-10-13T06:46:42;8.30;;;4.30;;
78891;SDS011;68368;51.728;5.248;2023-10-13T06:48:47;6.50;;;4.20;;
78891;SDS011;68368;51.728;5.248;2023-10-13T06:50:52;10.30;;;4.10;;
78891;SDS011;68368;51.728;5.248;2023-10-13T06:52:57;7.90;;;4.20;;
78891;SDS011;68368;51.728;5.248;2023-10-13T06:55:02;10.70;;;4.70;;
78891;SDS011;68368;51.728;5.248;2023-10-13T06:57:08;9.10;;;4.90;;
78891;SDS011;68368;51.728;5.248;2023-10-13T06:59:13;9.50;;;4.00;;
78891;SDS011;68368;51.728;5.248;2023-10-13T07:01:18;9.90;;;5.00;;
78891;SDS011;68368;51.728;5.248;2023-10-13T07:03:24;8.30;;;4.10;;
78891;SDS011;68368;51.728;5.248;2023-10-13T07:05:30;12.10;;;4.60;;
78891;SDS011;68368;51.728;5.248;2023-10-13T07:09:43;12.00;;;4.70;;
78891;SDS011;68368;51.728;5.248;2023-10-13T07:11:48;9.50;;;4.50;;
78891;SDS011;68368;51.728;5.248;2023-10-13T07:13:53;8.30;;;4.30;;
78891;SDS011;68368;51.728;5.248;2023-10-13T07:15:59;10.50;;;4.30;;
78891;SDS011;68368;51.728;5.248;2023-10-13T07:18:05;10.70;;;4.60;;
78891;SDS011;68368;51.728;5.248;2023-10-13T07:20:11;14.10;;;5.00;;
78891;SDS011;68368;51.728;5.248;2023-10-13T07:22:16;10.90;;;4.30;;
78891;SDS011;68368;51.728;5.248;2023-10-13T07:24:21;11.50;;;4.50;;
78891;SDS011;68368;51.728;5.248;2023-10-13T07:26:26;6.80;;;3.80;;
78891;SDS011;68368;51.728;5.248;2023-10-13T07:28:31;9.60;;;4.80;;
78891;SDS011;68368;51.728;5.248;2023-10-13T07:30:39;10.70;;;4.20;;
78891;SDS011;68368;51.728;5.248;2023-10-13T07:34:47;10.80;;;4.20;;
78891;SDS011;68368;51.728;5.248;2023-10-13T07:36:55;8.50;;;4.50;;
78891;SDS011;68368;51.728;5.248;2023-10-13T07:39:00;10.40;;;4.10;;
78891;SDS011;68368;51.728;5.248;2023-10-13T07:41:07;9.80;;;3.90;;
78891;SDS011;68368;51.728;5.248;2023-10-13T07:43:12;9.00;;;4.10;;
78891;SDS011;68368;51.728;5.248;2023-10-13T07:45:17;9.00;;;4.20;;
78891;SDS011;68368;51.728;5.248;2023-10-13T07:47:22;9.90;;;4.20;;
78891;SDS011;68368;51.728;5.248;2023-10-13T07:49:31;8.90;;;3.50;;
78891;SDS011;68368;51.728;5.248;2023-10-13T07:51:38;13.70;;;4.60;;
78891;SDS011;68368;51.728;5.248;2023-10-13T07:53:43;7.40;;;3.90;;
78891;SDS011;68368;51.728;5.248;2023-10-13T07:55:51;9.30;;;4.20;;
78891;SDS011;68368;51.728;5.248;2023-10-13T07:57:56;10.70;;;4.10;;
78891;SDS011;68368;51.728;5.248;2023-10-13T08:00:06;15.80;;;4.10;;
78891;SDS011;68368;51.728;5.248;2023-10-13T08:02:13;11.00;;;4.00;;
78891;SDS011;68368;51.728;5.248;2023-10-13T08:04:18;10.50;;;3.90;;
78891;SDS011;68368;51.728;5.248;2023-10-13T08:06:23;11.90;;;4.30;;
78891;SDS011;68368;51.728;5.248;2023-10-13T08:08:30;12.80;;;4.00;;
78891;SDS011;68368;51.728;5.248;2023-10-13T08:10:38;12.00;;;4.10;;
78891;SDS011;68368;51.728;5.248;2023-10-13T08:14:49;7.60;;;3.70;;
78891;SDS011;68368;51.728;5.248;2023-10-13T08:16:54;11.10;;;3.50;;
78891;SDS011;68368;51.728;5.248;2023-10-13T08:18:59;12.60;;;3.80;;
78891;SDS011;68368;51.728;5.248;2023-10-13T08:21:04;10.90;;;3.70;;
78891;SDS011;68368;51.728;5.248;2023-10-13T08:23:09;9.10;;;3.70;;
78891;SDS011;68368;51.728;5.248;2023-10-13T08:25:14;10.40;;;4.00;;
78891;SDS011;68368;51.728;5.248;2023-10-13T08:27:21;8.90;;;3.70;;
78891;SDS011;68368;51.728;5.248;2023-10-13T08:29:29;11.90;;;3.30;;
78891;SDS011;68368;51.728;5.248;2023-10-13T08:31:34;14.20;;;4.20;;
78891;SDS011;68368;51.728;5.248;2023-10-13T08:33:39;9.50;;;3.90;;
78891;SDS011;68368;51.728;5.248;2023-10-13T08:35:45;9.50;;;3.40;;
78891;SDS011;68368;51.728;5.248;2023-10-13T08:37:51;9.50;;;3.60;;
78891;SDS011;68368;51.728;5.248;2023-10-13T08:39:58;11.10;;;3.80;;
78891;SDS011;68368;51.728;5.248;2023-10-13T08:42:04;15.30;;;4.40;;
78891;SDS011;68368;51.728;5.248;2023-10-13T08:44:10;11.60;;;4.20;;
78891;SDS011;68368;51.728;5.248;2023-10-13T08:46:17;10.60;;;4.30;;
78891;SDS011;68368;51.728;5.248;2023-10-13T08:48:24;11.70;;;3.60;;
78891;SDS011;68368;51.728;5.248;2023-10-13T08:50:32;8.90;;;3.80;;
78891;SDS011;68368;51.728;5.248;2023-10-13T08:52:39;12.10;;;3.40;;
78891;SDS011;68368;51.728;5.248;2023-10-13T08:54:45;9.30;;;3.90;;
78891;SDS011;68368;51.728;5.248;2023-10-13T08:56:55;10.80;;;4.10;;
78891;SDS011;68368;51.728;5.248;2023-10-13T08:59:00;9.40;;;3.50;;
78891;SDS011;68368;51.728;5.248;2023-10-13T09:01:08;11.90;;;3.90;;
78891;SDS011;68368;51.728;5.248;2023-10-13T09:03:15;9.50;;;4.00;;
78891;SDS011;68368;51.728;5.248;2023-10-13T09:05:24;13.90;;;3.60;;
78891;SDS011;68368;51.728;5.248;2023-10-13T09:07:31;11.00;;;4.30;;
78891;SDS011;68368;51.728;5.248;2023-10-13T09:09:48;8.30;;;3.80;;
78891;SDS011;68368;51.728;5.248;2023-10-13T09:11:58;13.10;;;3.80;;
78891;SDS011;68368;51.728;5.248;2023-10-13T09:14:03;9.20;;;3.90;;
78891;SDS011;68368;51.728;5.248;2023-10-13T09:16:17;9.00;;;3.80;;
78891;SDS011;68368;51.728;5.248;2023-10-13T09:18:27;11.20;;;4.20;;
78891;SDS011;68368;51.728;5.248;2023-10-13T09:20:34;13.00;;;4.50;;
78891;SDS011;68368;51.728;5.248;2023-10-13T09:24:42;11.50;;;4.10;;
78891;SDS011;68368;51.728;5.248;2023-10-13T09:26:47;11.80;;;4.40;;
78891;SDS011;68368;51.728;5.248;2023-10-13T09:28:55;12.90;;;4.40;;
78891;SDS011;68368;51.728;5.248;2023-10-13T09:31:00;9.90;;;4.00;;
78891;SDS011;68368;51.728;5.248;2023-10-13T09:33:06;11.10;;;4.30;;
78891;SDS011;68368;51.728;5.248;2023-10-13T09:35:16;9.30;;;4.20;;
78891;SDS011;68368;51.728;5.248;2023-10-13T09:37:25;8.80;;;4.50;;
78891;SDS011;68368;51.728;5.248;2023-10-13T09:39:30;15.80;;;4.20;;
78891;SDS011;68368;51.728;5.248;2023-10-13T09:41:41;10.50;;;4.00;;
78891;SDS011;68368;51.728;5.248;2023-10-13T09:43:48;11.50;;;4.30;;
78891;SDS011;68368;51.728;5.248;2023-10-13T09:46:02;12.10;;;4.20;;
78891;SDS011;68368;51.728;5.248;2023-10-13T09:48:12;10.90;;;4.10;;
78891;SDS011;68368;51.728;5.248;2023-10-13T09:50:22;9.70;;;3.70;;
78891;SDS011;68368;51.728;5.248;2023-10-13T09:52:32;15.10;;;4.40;;
78891;SDS011;68368;51.728;5.248;2023-10-13T09:54:39;9.40;;;3.70;;
78891;SDS011;68368;51.728;5.248;2023-10-13T09:56:53;14.00;;;4.60;;
78891;SDS011;68368;51.728;5.248;2023-10-13T09:59:16;8.60;;;3.60;;
78891;SDS011;68368;51.728;5.248;2023-10-13T10:01:26;11.40;;;3.80;;
78891;SDS011;68368;51.728;5.248;2023-10-13T10:03:33;13.80;;;4.40;;
78891;SDS011;68368;51.728;5.248;2023-10-13T10:05:58;13.30;;;4.30;;
78891;SDS011;68368;51.728;5.248;2023-10-13T10:08:07;12.90;;;4.40;;
78891;SDS011;68368;51.728;5.248;2023-10-13T10:10:12;13.40;;;4.40;;
78891;SDS011;68368;51.728;5.248;2023-10-13T10:12:30;11.20;;;4.40;;
78891;SDS011;68368;51.728;5.248;2023-10-13T10:15:09;12.30;;;4.40;;
78891;SDS011;68368;51.728;5.248;2023-10-13T10:17:57;12.20;;;5.00;;
78891;SDS011;68368;51.728;5.248;2023-10-13T10:20:02;15.20;;;5.10;;
78891;SDS011;68368;51.728;5.248;2023-10-13T10:22:10;10.90;;;3.80;;
78891;SDS011;68368;51.728;5.248;2023-10-13T10:24:21;16.20;;;4.90;;
78891;SDS011;68368;51.728;5.248;2023-10-13T10:26:28;11.00;;;4.00;;
78891;SDS011;68368;51.728;5.248;2023-10-13T10:28:38;13.20;;;4.40;;
78891;SDS011;68368;51.728;5.248;2023-10-13T10:30:45;15.80;;;4.70;;
78891;SDS011;68368;51.728;5.248;2023-10-13T10:32:58;10.00;;;4.30;;
78891;SDS011;68368;51.728;5.248;2023-10-13T10:35:22;11.30;;;3.80;;
78891;SDS011;68368;51.728;5.248;2023-10-13T10:37:34;11.70;;;4.40;;
78891;SDS011;68368;51.728;5.248;2023-10-13T10:39:41;13.50;;;4.40;;
78891;SDS011;68368;51.728;5.248;2023-10-13T10:41:49;11.10;;;4.40;;
78891;SDS011;68368;51.728;5.248;2023-10-13T10:43:53;10.70;;;5.20;;
78891;SDS011;68368;51.728;5.248;2023-10-13T10:46:01;12.50;;;4.60;;
78891;SDS011;68368;51.728;5.248;2023-10-13T10:48:08;16.60;;;4.90;;
78891;SDS011;68368;51.728;5.248;2023-10-13T10:50:26;12.50;;;4.40;;
78891;SDS011;68368;51.728;5.248;2023-10-13T10:52:32;8.00;;;3.70;;
78891;SDS011;68368;51.728;5.248;2023-10-13T10:56:41;12.40;;;4.10;;
78891;SDS011;68368;51.728;5.248;2023-10-13T10:58:46;14.80;;;4.40;;
78891;SDS011;68368;51.728;5.248;2023-10-13T11:01:09;15.30;;;5.10;;
78891;SDS011;68368;51.728;5.248;2023-10-13T11:03:14;10.80;;;4.00;;
78891;SDS011;68368;51.728;5.248;2023-10-13T11:05:23;12.30;;;4.40;;
78891;SDS011;68368;51.728;5.248;2023-10-13T11:07:28;8.60;;;4.00;;
78891;SDS011;68368;51.728;5.248;2023-10-13T11:09:34;14.50;;;5.30;;
78891;SDS011;68368;51.728;5.248;2023-10-13T11:11:40;11.30;;;4.80;;
78891;SDS011;68368;51.728;5.248;2023-10-13T11:13:53;10.60;;;4.90;;
78891;SDS011;68368;51.728;5.248;2023-10-13T11:15:59;12.00;;;4.60;;
78891;SDS011;68368;51.728;5.248;2023-10-13T11:18:06;10.00;;;4.50;;
78891;SDS011;68368;51.728;5.248;2023-10-13T11:20:13;15.90;;;5.50;;
78891;SDS011;68368;51.728;5.248;2023-10-13T11:22:22;10.70;;;5.20;;
78891;SDS011;68368;51.728;5.248;2023-10-13T11:24:27;12.70;;;5.60;;
78891;SDS011;68368;51.728;5.248;2023-10-13T11:26:42;17.00;;;5.90;;
78891;SDS011;68368;51.728;5.248;2023-10-13T11:28:54;12.00;;;4.80;;
78891;SDS011;68368;51.728;5.248;2023-10-13T11:31:01;17.80;;;5.40;;
78891;SDS011;68368;51.728;5.248;2023-10-13T11:33:07;12.40;;;5.10;;
78891;SDS011;68368;51.728;5.248;2023-10-13T11:35:13;13.00;;;4.90;;
78891;SDS011;68368;51.728;5.248;2023-10-13T11:37:18;12.50;;;4.60;;
78891;SDS011;68368;51.728;5.248;2023-10-13T11:39:23;10.20;;;4.70;;
78891;SDS011;68368;51.728;5.248;2023-10-13T11:41:30;14.50;;;4.60;;
78891;SDS011;68368;51.728;5.248;2023-10-13T11:43:36;13.60;;;4.50;;
78891;SDS011;68368;51.728;5.248;2023-10-13T11:45:42;15.00;;;4.70;;
78891;SDS011;68368;51.728;5.248;2023-10-13T11:47:51;11.50;;;4.90;;
78891;SDS011;68368;51.728;5.248;2023-10-13T11:49:56;13.40;;;5.20;;
78891;SDS011;68368;51.728;5.248;2023-10-13T11:52:02;13.10;;;4.70;;
78891;SDS011;68368;51.728;5.248;2023-10-13T11:54:12;15.30;;;5.00;;
78891;SDS011;68368;51.728;5.248;2023-10-13T11:56:17;14.60;;;4.80;;
78891;SDS011;68368;51.728;5.248;2023-10-13T11:58:24;11.40;;;5.00;;
78891;SDS011;68368;51.728;5.248;2023-10-13T12:00:29;10.60;;;5.20;;
78891;SDS011;68368;51.728;5.248;2023-10-13T12:02:35;12.00;;;5.00;;
78891;SDS011;68368;51.728;5.248;2023-10-13T12:04:40;15.10;;;5.20;;
78891;SDS011;68368;51.728;5.248;2023-10-13T12:06:45;13.30;;;5.60;;
78891;SDS011;68368;51.728;5.248;2023-10-13T12:08:53;12.90;;;5.50;;
78891;SDS011;68368;51.728;5.248;2023-10-13T12:10:58;10.80;;;4.80;;
78891;SDS011;68368;51.728;5.248;2023-10-13T12:13:03;18.20;;;5.60;;
78891;SDS011;68368;51.728;5.248;2023-10-13T12:15:09;14.00;;;5.40;;
78891;SDS011;68368;51.728;5.248;2023-10-13T12:17:14;12.00;;;5.90;;
78891;SDS011;68368;51.728;5.248;2023-10-13T12:19:19;11.50;;;5.00;;
78891;SDS011;68368;51.728;5.248;2023-10-13T12:21:25;14.10;;;5.50;;
78891;SDS011;68368;51.728;5.248;2023-10-13T12:23:30;12.80;;;5.80;;
78891;SDS011;68368;51.728;5.248;2023-10-13T12:25:38;13.60;;;5.10;;
78891;SDS011;68368;51.728;5.248;2023-10-13T12:27:43;14.20;;;5.20;;
78891;SDS011;68368;51.728;5.248;2023-10-13T12:29:48;16.50;;;6.20;;
78891;SDS011;68368;51.728;5.248;2023-10-13T12:31:54;14.20;;;5.70;;
78891;SDS011;68368;51.728;5.248;2023-10-13T12:33:58;11.60;;;5.40;;
78891;SDS011;68368;51.728;5.248;2023-10-13T12:36:04;15.40;;;5.80;;
78891;SDS011;68368;51.728;5.248;2023-10-13T12:38:09;14.60;;;5.80;;
78891;SDS011;68368;51.728;5.248;2023-10-13T12:40:15;14.40;;;6.30;;
78891;SDS011;68368;51.728;5.248;2023-10-13T12:42:21;14.20;;;5.40;;
78891;SDS011;68368;51.728;5.248;2023-10-13T12:44:28;15.80;;;5.70;;
78891;SDS011;68368;51.728;5.248;2023-10-13T12:46:33;11.20;;;5.80;;
78891;SDS011;68368;51.728;5.248;2023-10-13T12:48:40;14.10;;;6.00;;
78891;SDS011;68368;51.728;5.248;2023-10-13T12:50:45;12.60;;;5.30;;